createdAt,value
2017-06-17T00:00:26.098Z,53.20
2017-06-17T00:02:53.667Z,53.30
2017-06-17T00:05:22.019Z,53.70
2017-06-17T00:07:49.617Z,53.70
2017-06-17T00:10:17.199Z,53.80
2017-06-17T00:12:44.776Z,54.10
2017-06-17T00:15:12.365Z,54.50
2017-06-17T00:17:39.941Z,54.80
2017-06-17T00:20:07.533Z,55.00
2017-06-17T00:22:35.109Z,55.20
2017-06-17T00:25:02.721Z,55.30
2017-06-17T00:27:31.057Z,55.40
2017-06-17T00:29:58.628Z,55.40
2017-06-17T00:32:26.222Z,55.60
2017-06-17T00:34:53.800Z,55.50
2017-06-17T00:37:21.388Z,55.50
2017-06-17T00:39:48.954Z,55.70
2017-06-17T00:42:16.565Z,55.80
2017-06-17T00:44:44.147Z,55.90
2017-06-17T00:47:11.727Z,55.80
2017-06-17T00:49:39.321Z,56.00
2017-06-17T00:52:07.653Z,55.90
2017-06-17T00:54:35.259Z,55.90
2017-06-17T00:57:02.827Z,55.80
2017-06-17T00:59:30.436Z,56.10
2017-06-17T01:01:58.364Z,56.10
2017-06-17T01:04:25.938Z,56.80
2017-06-17T01:06:53.520Z,56.30
2017-06-17T01:09:21.084Z,56.50
2017-06-17T01:11:48.697Z,56.70
2017-06-17T01:14:16.293Z,56.90
2017-06-17T01:16:43.904Z,57.20
2017-06-17T01:19:11.487Z,57.40
2017-06-17T01:21:39.072Z,57.80
2017-06-17T01:24:06.674Z,57.90
2017-06-17T01:26:35.010Z,58.20
2017-06-17T01:29:02.593Z,58.20
2017-06-17T01:31:30.173Z,58.20
2017-06-17T01:33:57.792Z,58.00
2017-06-17T01:36:25.372Z,57.90
2017-06-17T01:38:52.945Z,58.00
2017-06-17T01:41:21.316Z,58.00
2017-06-17T01:43:48.887Z,58.00
2017-06-17T01:46:17.285Z,58.10
2017-06-17T01:48:44.865Z,58.10
2017-06-17T01:51:12.479Z,58.20
2017-06-17T01:53:40.820Z,58.50
2017-06-17T01:56:08.411Z,58.40
2017-06-17T01:58:36.004Z,58.40
2017-06-17T02:01:03.579Z,58.30
2017-06-17T02:03:31.185Z,58.50
2017-06-17T02:05:58.758Z,58.60
2017-06-17T02:08:27.126Z,58.80
2017-06-17T02:10:54.694Z,58.70
2017-06-17T02:13:23.039Z,58.90
2017-06-17T02:15:50.628Z,58.90
2017-06-17T02:18:18.981Z,59.00
2017-06-17T02:20:46.564Z,59.00
2017-06-17T02:23:14.908Z,58.80
2017-06-17T02:25:42.523Z,58.80
2017-06-17T02:28:10.095Z,58.90
2017-06-17T02:30:37.669Z,58.90
2017-06-17T02:33:05.257Z,59.00
2017-06-17T02:35:32.854Z,59.00
2017-06-17T02:38:00.441Z,58.80
2017-06-17T02:40:28.008Z,58.80
2017-06-17T02:42:55.609Z,58.90
2017-06-17T02:45:23.959Z,59.30
2017-06-17T02:47:51.517Z,59.00
2017-06-17T02:50:19.100Z,59.00
2017-06-17T02:52:47.462Z,58.90
2017-06-17T02:55:15.056Z,58.90
2017-06-17T02:57:43.406Z,59.10
2017-06-17T03:00:11.037Z,59.00
2017-06-17T03:02:38.625Z,59.10
2017-06-17T03:05:06.249Z,59.30
2017-06-17T03:07:33.850Z,59.40
2017-06-17T03:10:01.430Z,59.60
2017-06-17T03:12:29.783Z,59.90
2017-06-17T03:14:59.086Z,60.10
2017-06-17T03:17:26.700Z,60.10
2017-06-17T03:19:54.273Z,60.10
2017-06-17T03:22:21.858Z,60.00
2017-06-17T03:24:49.443Z,60.20
2017-06-17T03:27:17.038Z,60.20
2017-06-17T03:29:44.624Z,60.20
2017-06-17T03:32:12.196Z,60.00
2017-06-17T03:34:39.795Z,60.20
2017-06-17T03:37:07.362Z,59.80
2017-06-17T03:39:34.959Z,59.80
2017-06-17T03:42:02.520Z,59.20
2017-06-17T03:44:30.096Z,58.90
2017-06-17T03:46:58.454Z,59.20
2017-06-17T03:49:26.038Z,58.80
2017-06-17T03:51:54.406Z,57.30
2017-06-17T03:54:21.987Z,57.70
2017-06-17T03:56:50.600Z,57.60
2017-06-17T03:59:18.173Z,57.60
2017-06-17T04:01:45.740Z,57.50
2017-06-17T04:04:13.334Z,57.10
2017-06-17T04:06:41.719Z,57.00
2017-06-17T04:09:10.073Z,56.70
2017-06-17T04:11:37.663Z,56.60
2017-06-17T04:14:05.235Z,56.70
2017-06-17T04:16:32.818Z,57.00
2017-06-17T04:19:00.476Z,57.10
2017-06-17T04:21:28.063Z,57.50
2017-06-17T04:23:55.654Z,57.70
2017-06-17T04:26:24.011Z,58.70
2017-06-17T04:28:51.586Z,58.70
2017-06-17T04:31:19.963Z,59.20
2017-06-17T04:33:48.307Z,59.20
2017-06-17T04:36:15.875Z,59.30
2017-06-17T04:38:43.457Z,59.20
2017-06-17T04:41:11.053Z,59.60
2017-06-17T04:43:38.954Z,59.60
2017-06-17T04:46:06.524Z,59.60
2017-06-17T04:48:34.109Z,59.90
2017-06-17T04:51:01.716Z,60.30
2017-06-17T04:53:29.288Z,60.70
2017-06-17T04:55:56.863Z,61.10
2017-06-17T04:58:24.432Z,60.90
2017-06-17T05:00:52.811Z,61.10
2017-06-17T05:03:20.396Z,61.10
2017-06-17T05:05:47.976Z,60.80
2017-06-17T05:08:15.559Z,60.40
2017-06-17T05:10:43.160Z,60.40
2017-06-17T05:13:11.501Z,59.80
2017-06-17T05:15:39.089Z,59.80
2017-06-17T05:18:06.680Z,60.30
2017-06-17T05:20:34.270Z,60.20
2017-06-17T05:23:01.873Z,60.10
2017-06-17T05:25:29.467Z,60.10
2017-06-17T05:27:57.363Z,59.50
2017-06-17T05:30:24.938Z,58.70
2017-06-17T05:32:52.519Z,58.00
2017-06-17T05:35:20.108Z,58.00
2017-06-17T05:37:47.667Z,57.80
2017-06-17T05:40:15.253Z,57.60
2017-06-17T05:42:42.982Z,57.00
2017-06-17T05:45:10.600Z,57.10
2017-06-17T05:47:38.182Z,56.80
2017-06-17T05:50:05.749Z,56.30
2017-06-17T05:52:33.345Z,56.30
2017-06-17T05:55:00.919Z,56.20
2017-06-17T05:57:28.512Z,56.00
2017-06-17T05:59:56.084Z,55.90
2017-06-17T06:02:23.693Z,55.30
2017-06-17T06:04:51.282Z,55.10
2017-06-17T06:07:19.622Z,53.90
2017-06-17T06:09:47.216Z,53.90
2017-06-17T06:12:15.566Z,54.20
2017-06-17T06:14:43.151Z,53.60
2017-06-17T06:17:11.498Z,53.50
2017-06-17T06:19:39.092Z,54.00
2017-06-17T06:22:07.440Z,53.00
2017-06-17T06:24:35.009Z,53.00
2017-06-17T06:27:02.587Z,51.70
2017-06-17T06:29:30.170Z,51.40
2017-06-17T06:31:57.772Z,51.20
2017-06-17T06:34:25.357Z,50.70
2017-06-17T06:36:53.721Z,51.40
2017-06-17T06:39:21.303Z,51.00
2017-06-17T06:41:48.913Z,51.00
2017-06-17T06:44:16.484Z,50.90
2017-06-17T06:46:44.066Z,50.00
2017-06-17T06:49:11.651Z,49.60
2017-06-17T06:51:39.240Z,48.90
2017-06-17T06:54:06.829Z,49.50
2017-06-17T06:56:34.405Z,50.10
2017-06-17T06:59:01.997Z,50.50
2017-06-17T07:01:29.576Z,50.40
2017-06-17T07:03:57.172Z,49.70
2017-06-17T07:06:24.757Z,50.10
2017-06-17T07:08:52.337Z,50.30
2017-06-17T07:11:19.905Z,50.70
2017-06-17T07:13:47.489Z,50.50
2017-06-17T07:16:15.090Z,50.00
2017-06-17T07:18:43.436Z,50.40
2017-06-17T07:21:11.293Z,50.30
2017-06-17T07:23:38.868Z,50.00
2017-06-17T07:26:06.442Z,50.20
2017-06-17T07:28:34.794Z,50.10
2017-06-17T07:31:02.377Z,50.10
2017-06-17T07:33:30.741Z,50.00
2017-06-17T07:35:58.322Z,50.00
2017-06-17T07:38:26.713Z,49.90
2017-06-17T07:40:54.306Z,49.80
2017-06-17T07:43:21.913Z,49.60
2017-06-17T07:45:50.290Z,48.80
2017-06-17T07:48:18.648Z,48.90
2017-06-17T07:50:46.256Z,48.90
2017-06-17T07:53:13.870Z,48.60
2017-06-17T07:55:41.477Z,48.80
2017-06-17T07:58:09.096Z,48.60
2017-06-17T08:00:36.709Z,48.50
2017-06-17T08:03:04.303Z,49.00
2017-06-17T08:05:31.996Z,48.50
2017-06-17T08:08:00.364Z,48.90
2017-06-17T08:10:28.723Z,48.20
2017-06-17T08:12:56.404Z,48.10
2017-06-17T08:15:24.745Z,48.30
2017-06-17T08:17:52.315Z,48.30
2017-06-17T08:20:19.903Z,47.90
2017-06-17T08:22:48.262Z,47.80
2017-06-17T08:25:16.670Z,48.40
2017-06-17T08:27:44.367Z,48.20
2017-06-17T08:30:11.981Z,47.70
2017-06-17T08:32:39.567Z,47.70
2017-06-17T08:35:07.177Z,47.60
2017-06-17T08:37:34.791Z,47.60
2017-06-17T08:40:02.422Z,47.60
2017-06-17T08:42:30.817Z,47.70
2017-06-17T08:44:58.409Z,47.50
2017-06-17T08:47:26.004Z,47.10
2017-06-17T08:49:53.600Z,46.80
2017-06-17T08:52:21.211Z,47.00
2017-06-17T08:54:48.809Z,46.50
2017-06-17T08:57:16.420Z,45.70
2017-06-17T08:59:44.053Z,45.70
2017-06-17T09:02:11.655Z,45.80
2017-06-17T09:04:39.295Z,46.50
2017-06-17T09:07:06.891Z,46.90
2017-06-17T09:09:35.294Z,45.50
2017-06-17T09:12:02.874Z,45.50
2017-06-17T09:14:30.442Z,45.20
2017-06-17T09:16:58.059Z,45.20
2017-06-17T09:19:25.645Z,45.50
2017-06-17T09:21:53.237Z,46.70
2017-06-17T09:24:20.833Z,46.20
2017-06-17T09:26:48.449Z,45.80
2017-06-17T09:29:16.074Z,45.10
2017-06-17T09:31:43.668Z,44.10
2017-06-17T09:34:11.283Z,44.30
2017-06-17T09:36:38.888Z,45.10
2017-06-17T09:39:06.471Z,44.10
2017-06-17T09:41:34.043Z,43.80
2017-06-17T09:44:01.634Z,43.90
2017-06-17T09:46:29.195Z,44.60
2017-06-17T09:48:56.760Z,44.70
2017-06-17T09:51:24.345Z,43.80
2017-06-17T09:53:51.922Z,44.00
2017-06-17T09:56:19.513Z,44.00
2017-06-17T09:58:47.089Z,44.30
2017-06-17T10:01:14.694Z,44.60
2017-06-17T10:03:42.280Z,43.70
2017-06-17T10:06:09.856Z,43.00
2017-06-17T10:08:37.460Z,43.40
2017-06-17T10:11:05.050Z,43.00
2017-06-17T10:13:33.418Z,42.60
2017-06-17T10:16:00.986Z,42.60
2017-06-17T10:18:29.333Z,43.30
2017-06-17T10:21:02.620Z,43.30
2017-06-17T10:23:30.219Z,43.50
2017-06-17T10:25:58.572Z,42.10
2017-06-17T10:28:26.151Z,42.10
2017-06-17T10:30:54.506Z,42.80
2017-06-17T10:33:22.082Z,42.20
2017-06-17T10:35:50.433Z,42.70
2017-06-17T10:38:18.026Z,42.20
2017-06-17T10:40:45.606Z,42.60
2017-06-17T10:43:13.195Z,41.60
2017-06-17T10:45:40.750Z,41.00
2017-06-17T10:48:08.323Z,41.50
2017-06-17T10:50:35.900Z,41.30
2017-06-17T10:53:03.960Z,41.80
2017-06-17T10:55:31.533Z,41.00
2017-06-17T10:57:59.112Z,41.10
2017-06-17T11:00:26.704Z,40.50
2017-06-17T11:02:55.144Z,41.10
2017-06-17T11:05:23.496Z,41.20
2017-06-17T11:07:51.059Z,41.20
2017-06-17T11:10:18.658Z,41.50
2017-06-17T11:12:46.242Z,40.50
2017-06-17T11:15:13.810Z,40.60
2017-06-17T11:17:41.432Z,41.50
2017-06-17T11:20:09.007Z,41.20
2017-06-17T11:22:36.607Z,40.70
2017-06-17T11:25:04.185Z,41.10
2017-06-17T11:27:31.786Z,39.50
2017-06-17T11:29:59.748Z,39.70
2017-06-17T11:32:27.318Z,39.90
2017-06-17T11:34:54.894Z,39.60
2017-06-17T11:37:22.486Z,40.10
2017-06-17T11:39:50.059Z,39.50
2017-06-17T11:42:18.407Z,39.00
2017-06-17T11:44:45.995Z,39.60
2017-06-17T11:47:13.571Z,38.90
2017-06-17T11:49:41.165Z,38.80
2017-06-17T11:52:08.748Z,38.00
2017-06-17T11:54:38.206Z,38.40
2017-06-17T11:57:05.775Z,38.70
2017-06-17T11:59:33.345Z,38.00
2017-06-17T12:02:00.942Z,38.40
2017-06-17T12:04:28.536Z,38.20
2017-06-17T12:06:56.109Z,38.00
2017-06-17T12:09:23.688Z,37.10
2017-06-17T12:11:51.267Z,36.00
2017-06-17T12:14:18.871Z,36.80
2017-06-17T12:16:46.473Z,36.30
2017-06-17T12:19:14.082Z,35.80
2017-06-17T12:21:41.668Z,36.40
2017-06-17T12:24:09.231Z,37.10
2017-06-17T12:26:36.804Z,36.20
2017-06-17T12:29:04.364Z,35.70
2017-06-17T12:31:31.964Z,35.10
2017-06-17T12:34:00.307Z,35.60
2017-06-17T12:36:27.894Z,35.50
2017-06-17T12:38:56.211Z,36.40
2017-06-17T12:41:23.815Z,36.40
2017-06-17T12:43:51.398Z,36.30
2017-06-17T12:46:19.740Z,36.30
2017-06-17T12:48:47.355Z,36.30
2017-06-17T12:51:14.930Z,35.50
2017-06-17T12:53:42.927Z,35.00
2017-06-17T12:56:10.495Z,35.30
2017-06-17T12:58:38.101Z,34.90
2017-06-17T13:01:05.693Z,34.80
2017-06-17T13:03:33.314Z,35.20
2017-06-17T13:06:00.925Z,35.00
2017-06-17T13:08:28.498Z,35.70
2017-06-17T13:10:56.090Z,36.90
2017-06-17T13:13:23.653Z,36.40
2017-06-17T13:15:51.206Z,36.30
2017-06-17T13:18:18.789Z,37.00
2017-06-17T13:20:46.455Z,36.00
2017-06-17T13:23:14.076Z,35.00
2017-06-17T13:25:41.651Z,34.30
2017-06-17T13:28:09.249Z,34.00
2017-06-17T13:30:36.845Z,34.30
2017-06-17T13:33:04.415Z,34.30
2017-06-17T13:35:31.981Z,34.10
2017-06-17T13:37:59.561Z,33.90
2017-06-17T13:40:27.146Z,33.70
2017-06-17T13:42:54.707Z,33.40
2017-06-17T13:45:22.307Z,34.10
2017-06-17T13:47:49.885Z,34.50
2017-06-17T13:50:17.497Z,34.30
2017-06-17T13:52:45.055Z,33.90
2017-06-17T13:55:12.649Z,34.30
2017-06-17T13:57:40.996Z,34.10
2017-06-17T14:00:08.547Z,34.00
2017-06-17T14:02:36.164Z,33.20
2017-06-17T14:05:03.736Z,34.10
2017-06-17T14:07:31.317Z,33.60
2017-06-17T14:09:58.895Z,32.90
2017-06-17T14:12:26.471Z,33.30
2017-06-17T14:14:54.809Z,34.40
2017-06-17T14:17:22.374Z,34.40
2017-06-17T14:19:49.955Z,33.80
2017-06-17T14:22:23.135Z,33.70
2017-06-17T14:24:50.747Z,32.60
2017-06-17T14:27:18.310Z,31.40
2017-06-17T14:29:45.883Z,31.90
2017-06-17T14:32:13.474Z,32.00
2017-06-17T14:34:41.047Z,32.50
2017-06-17T14:37:09.447Z,33.80
2017-06-17T14:39:37.038Z,33.70
2017-06-17T14:42:04.606Z,33.80
2017-06-17T14:44:32.199Z,32.70
2017-06-17T14:46:59.798Z,31.90
2017-06-17T14:49:27.396Z,31.40
2017-06-17T14:51:54.988Z,31.40
2017-06-17T14:54:22.586Z,31.70
2017-06-17T14:56:50.184Z,32.20
2017-06-17T14:59:17.764Z,32.30
2017-06-17T15:01:46.112Z,31.90
2017-06-17T15:04:13.756Z,31.90
2017-06-17T15:06:41.369Z,30.50
2017-06-17T15:09:08.926Z,29.10
2017-06-17T15:11:36.557Z,28.60
2017-06-17T15:14:04.131Z,29.60
2017-06-17T15:16:32.456Z,27.70
2017-06-17T15:19:00.036Z,27.70
2017-06-17T15:21:27.596Z,25.90
2017-06-17T15:23:55.176Z,24.80
2017-06-17T15:26:22.756Z,23.40
2017-06-17T15:28:51.104Z,21.20
2017-06-17T15:31:18.672Z,21.20
2017-06-17T15:33:46.262Z,20.60
2017-06-17T15:36:13.869Z,20.80
2017-06-17T15:38:41.428Z,19.70
2017-06-17T15:41:09.018Z,19.30
2017-06-17T15:43:37.343Z,20.90
2017-06-17T15:46:05.000Z,20.90
2017-06-17T15:48:32.591Z,20.00
2017-06-17T15:51:00.180Z,19.70
2017-06-17T15:53:28.520Z,21.30
2017-06-17T15:55:56.090Z,21.20
2017-06-17T15:58:23.698Z,21.10
2017-06-17T16:00:51.290Z,20.50
2017-06-17T16:03:18.866Z,20.60
2017-06-17T16:05:46.450Z,21.30
2017-06-17T16:08:14.022Z,22.00
2017-06-17T16:10:41.699Z,22.50
2017-06-17T16:13:09.269Z,22.50
2017-06-17T16:15:36.833Z,23.00
2017-06-17T16:18:04.437Z,22.80
2017-06-17T16:20:32.016Z,24.00
2017-06-17T16:22:59.587Z,24.70
2017-06-17T16:25:27.149Z,25.40
2017-06-17T16:27:54.931Z,25.50
2017-06-17T16:30:22.506Z,25.90
2017-06-17T16:32:50.098Z,27.60
2017-06-17T16:35:18.437Z,29.60
2017-06-17T16:37:46.002Z,29.50
2017-06-17T16:40:13.580Z,30.80
2017-06-17T16:42:41.140Z,32.10
2017-06-17T16:45:08.927Z,32.80
2017-06-17T16:47:37.263Z,34.40
2017-06-17T16:50:04.838Z,34.40
2017-06-17T16:52:32.412Z,35.10
2017-06-17T16:54:59.970Z,35.80
2017-06-17T16:57:28.320Z,36.80
2017-06-17T16:59:55.915Z,36.70
2017-06-17T17:02:23.511Z,37.30
2017-06-17T17:04:51.106Z,37.70
2017-06-17T17:07:18.667Z,38.00
2017-06-17T17:09:46.243Z,38.10
2017-06-17T17:12:13.812Z,39.00
2017-06-17T17:14:41.411Z,39.10
2017-06-17T17:17:08.972Z,39.50
2017-06-17T17:19:36.556Z,39.20
2017-06-17T17:22:04.122Z,39.50
2017-06-17T17:24:31.725Z,39.20
2017-06-17T17:26:59.321Z,39.30
2017-06-17T17:29:27.089Z,39.10
2017-06-17T17:31:54.683Z,39.50
2017-06-17T17:34:22.253Z,40.10
2017-06-17T17:36:49.856Z,40.00
2017-06-17T17:39:17.421Z,39.90
2017-06-17T17:41:45.015Z,40.40
2017-06-17T17:44:12.583Z,40.70
2017-06-17T17:46:40.180Z,41.00
2017-06-17T17:49:07.769Z,41.20
2017-06-17T17:51:35.330Z,41.70
2017-06-17T17:54:02.905Z,42.10
2017-06-17T17:56:31.259Z,43.10
2017-06-17T17:58:58.863Z,43.10
2017-06-17T18:01:26.437Z,43.40
2017-06-17T18:03:54.012Z,43.90
2017-06-17T18:06:21.599Z,44.30
2017-06-17T18:08:49.162Z,44.60
2017-06-17T18:11:16.744Z,45.10
2017-06-17T18:13:45.107Z,45.60
2017-06-17T18:16:12.711Z,45.50
2017-06-17T18:18:40.302Z,46.00
2017-06-17T18:21:07.886Z,46.20
2017-06-17T18:23:40.400Z,46.40
2017-06-17T18:26:13.789Z,46.70
2017-06-17T18:28:45.619Z,47.10
2017-06-17T18:31:19.878Z,47.20
2017-06-17T18:33:47.486Z,47.10
2017-06-17T18:36:15.077Z,47.10
2017-06-17T18:38:42.663Z,47.30
2017-06-17T18:41:10.248Z,47.30
2017-06-17T18:43:37.825Z,47.40
2017-06-17T18:46:05.444Z,47.40
2017-06-17T18:48:37.863Z,47.70
2017-06-17T18:51:06.228Z,48.10
2017-06-17T18:53:33.798Z,48.10
2017-06-17T18:56:01.377Z,48.30
2017-06-17T18:58:28.984Z,48.50
2017-06-17T19:00:56.650Z,48.70
2017-06-17T19:03:27.964Z,48.80
2017-06-17T19:05:55.528Z,48.80
2017-06-17T19:08:23.108Z,49.00
2017-06-17T19:10:50.691Z,49.20
2017-06-17T19:13:18.301Z,49.60
2017-06-17T19:15:45.932Z,49.80
2017-06-17T19:18:14.300Z,50.00
2017-06-17T19:20:42.654Z,50.20
2017-06-17T19:23:10.216Z,50.20
2017-06-17T19:25:37.839Z,50.40
2017-06-17T19:28:05.419Z,50.70
2017-06-17T19:30:34.068Z,50.90
2017-06-17T19:33:01.645Z,50.70
2017-06-17T19:35:29.230Z,51.10
2017-06-17T19:37:57.095Z,51.10
2017-06-17T19:40:24.702Z,51.40
2017-06-17T19:42:52.305Z,51.80
2017-06-17T19:45:19.892Z,52.10
2017-06-17T19:47:47.466Z,52.30
2017-06-17T19:50:15.818Z,52.60
2017-06-17T19:52:43.395Z,52.60
2017-06-17T19:55:10.996Z,52.80
2017-06-17T19:57:38.569Z,53.10
2017-06-17T20:00:06.458Z,53.40
2017-06-17T20:02:34.036Z,53.70
2017-06-17T20:05:02.393Z,54.00
2017-06-17T20:07:29.991Z,54.00
2017-06-17T20:09:57.714Z,54.10
2017-06-17T20:12:25.302Z,54.20
2017-06-17T20:14:53.656Z,54.70
2017-06-17T20:17:21.255Z,54.70
2017-06-17T20:19:48.853Z,54.90
2017-06-17T20:22:22.145Z,55.00
2017-06-17T20:24:49.744Z,55.30
2017-06-17T20:27:17.309Z,55.40
2017-06-17T20:29:45.673Z,56.10
2017-06-17T20:32:13.280Z,56.10
2017-06-17T20:34:40.867Z,56.50
2017-06-17T20:37:08.432Z,56.60
2017-06-17T20:39:36.070Z,56.60
2017-06-17T20:42:03.655Z,56.80
2017-06-17T20:44:31.280Z,56.90
2017-06-17T20:46:58.864Z,57.10
2017-06-17T20:49:26.444Z,57.40
2017-06-17T20:51:54.042Z,57.50
2017-06-17T20:54:21.644Z,57.70
2017-06-17T20:56:49.245Z,57.70
2017-06-17T20:59:17.576Z,58.00
2017-06-17T21:01:45.153Z,58.50
2017-06-17T21:04:12.750Z,58.20
2017-06-17T21:06:40.321Z,58.20
2017-06-17T21:09:07.893Z,58.40
2017-06-17T21:11:35.467Z,58.40
2017-06-17T21:14:03.077Z,58.50
2017-06-17T21:16:31.468Z,58.90
2017-06-17T21:18:59.035Z,58.80
2017-06-17T21:21:26.643Z,59.00
2017-06-17T21:23:54.212Z,59.30
2017-06-17T21:26:21.805Z,59.60
2017-06-17T21:28:49.384Z,59.40
2017-06-17T21:31:16.998Z,59.70
2017-06-17T21:33:45.345Z,59.50
2017-06-17T21:36:12.953Z,59.40
2017-06-17T21:38:40.559Z,59.30
2017-06-17T21:41:08.137Z,59.60
2017-06-17T21:43:35.748Z,59.80
2017-06-17T21:46:03.333Z,59.90
2017-06-17T21:48:30.945Z,59.80
2017-06-17T21:50:59.281Z,60.60
2017-06-17T21:53:26.855Z,60.40
2017-06-17T21:55:54.458Z,60.70
2017-06-17T21:58:22.030Z,60.60
2017-06-17T22:00:49.639Z,60.60
2017-06-17T22:03:17.211Z,60.50
2017-06-17T22:05:44.773Z,60.40
2017-06-17T22:08:12.365Z,60.50
2017-06-17T22:10:39.941Z,61.10
2017-06-17T22:13:07.542Z,61.20
2017-06-17T22:15:35.866Z,61.40
2017-06-17T22:18:03.465Z,61.30
2017-06-17T22:20:31.037Z,61.20
2017-06-17T22:22:58.633Z,61.50
2017-06-17T22:25:26.292Z,62.00
2017-06-17T22:27:53.871Z,61.70
2017-06-17T22:30:21.443Z,61.70
2017-06-17T22:32:49.045Z,61.60
2017-06-17T22:35:16.641Z,61.80
2017-06-17T22:37:44.207Z,61.60
2017-06-17T22:40:11.808Z,61.50
2017-06-17T22:42:39.398Z,61.70
2017-06-17T22:45:06.990Z,61.50
2017-06-17T22:47:34.578Z,61.60
2017-06-17T22:50:02.161Z,61.70
2017-06-17T22:52:29.753Z,61.90
2017-06-17T22:54:57.303Z,62.40
2017-06-17T22:57:24.914Z,62.30
2017-06-17T22:59:52.494Z,62.40
2017-06-17T23:02:20.079Z,62.50
2017-06-17T23:04:47.668Z,61.90
2017-06-17T23:07:15.231Z,61.70
2017-06-17T23:09:42.806Z,61.50
2017-06-17T23:12:10.374Z,61.70
2017-06-17T23:14:37.973Z,61.90
2017-06-17T23:17:05.547Z,62.00
2017-06-17T23:19:33.131Z,62.20
2017-06-17T23:22:01.570Z,62.30
2017-06-17T23:24:29.171Z,62.30
2017-06-17T23:26:56.773Z,62.60
2017-06-17T23:29:24.352Z,62.70
2017-06-17T23:31:51.947Z,62.70
2017-06-17T23:34:19.516Z,62.60
2017-06-17T23:36:47.090Z,62.80
2017-06-17T23:39:14.675Z,62.70
2017-06-17T23:41:42.267Z,62.70
2017-06-17T23:44:09.869Z,62.60
2017-06-17T23:46:38.193Z,63.20
2017-06-17T23:49:05.782Z,63.10
2017-06-17T23:51:33.358Z,63.40
2017-06-17T23:54:00.940Z,63.40
2017-06-17T23:56:28.523Z,63.60
2017-06-17T23:58:56.102Z,63.60
